Time;durP1;ratioP1;P1;durP2;ratioP2;P2;SDS_P1;SDS_P2;PMS_P1;PMS_P2;Temp;Humidity;BMP_temperature;BMP_pressure;BME280_temperature;BME280_humidity;BME280_pressure;Samples;Min_cycle;Max_cycle;Signal;HPM_P1;HPM_P2
2023/08/25 00:01:56;;;;;;;;;15.00;15.00;;;;;;;;5052061;28;52102;-59
2023/08/25 00:04:21;;;;;;;;;9.67;9.33;;;;;;;;5052704;28;51160;-59
2023/08/25 00:06:46;;;;;;;;;11.67;11.00;;;;;;;;5054013;28;51196;-60
2023/08/25 00:09:12;;;;;;;;;14.00;14.00;;;;;;;;5052503;28;50946;-59
2023/08/25 00:11:38;;;;;;;;;12.33;12.33;;;;;;;;5046683;28;52005;-60
2023/08/25 00:14:04;;;;;;;;;11.33;11.33;;;;;;;;5058679;28;50974;-60
2023/08/25 00:16:29;;;;;;;;;11.00;11.00;;;;;;;;5046664;28;51117;-60
2023/08/25 00:18:55;;;;;;;;;13.00;12.67;;;;;;;;5052472;28;51116;-60
2023/08/25 00:21:20;;;;;;;;;12.33;12.33;;;;;;;;5045491;28;51617;-59
2023/08/25 00:23:45;;;;;;;;;13.00;11.67;;;;;;;;5051798;28;51074;-59
2023/08/25 00:26:10;;;;;;;;;12.00;12.00;;;;;;;;5047334;28;51888;-59
2023/08/25 00:28:36;;;;;;;;;14.67;14.00;;;;;;;;5063359;28;51102;-60
2023/08/25 00:31:01;;;;;;;;;14.00;13.67;;;;;;;;5048650;28;52091;-59
2023/08/25 00:33:26;;;;;;;;;12.67;12.00;;;;;;;;5036044;28;51082;-60
2023/08/25 00:35:51;;;;;;;;;12.33;12.33;;;;;;;;5044582;28;51144;-60
2023/08/25 00:38:16;;;;;;;;;12.33;12.33;;;;;;;;5061309;28;51589;-60
2023/08/25 00:40:42;;;;;;;;;9.00;9.00;;;;;;;;5046214;28;51550;-60
2023/08/25 00:43:07;;;;;;;;;13.33;13.00;;;;;;;;5047301;28;51120;-60
2023/08/25 00:45:35;;;;;;;;;13.00;13.00;;;;;;;;5028855;28;51138;-59
2023/08/25 00:48:00;;;;;;;;;13.00;13.00;;;;;;;;5037065;28;51298;-60
2023/08/25 00:50:28;;;;;;;;;12.67;12.67;;;;;;;;5054137;28;52846;-60
2023/08/25 00:52:53;;;;;;;;;12.33;12.00;;;;;;;;5049402;28;51085;-60
2023/08/25 00:55:18;;;;;;;;;14.33;14.33;;;;;;;;5052586;28;51138;-59
2023/08/25 00:57:44;;;;;;;;;12.33;11.33;;;;;;;;5063734;28;50870;-60
2023/08/25 01:00:11;;;;;;;;;13.33;13.00;;;;;;;;5054972;28;51121;-60
2023/08/25 01:02:36;;;;;;;;;13.33;12.00;;;;;;;;5064404;28;50854;-61
2023/08/25 01:05:03;;;;;;;;;13.33;13.33;;;;;;;;5052893;28;51243;-60
2023/08/25 01:07:28;;;;;;;;;14.00;12.33;;;;;;;;5049873;28;51272;-59
2023/08/25 01:09:54;;;;;;;;;11.33;10.33;;;;;;;;5051327;28;52020;-59
2023/08/25 01:12:28;;;;;;;;;10.33;10.33;;;;;;;;5054317;28;51074;-59
2023/08/25 01:15:08;;;;;;;;;12.00;11.00;;;;;;;;5055037;28;51038;-60
2023/08/25 01:17:44;;;;;;;;;15.67;15.00;;;;;;;;5053120;28;51042;-60
2023/08/25 01:20:11;;;;;;;;;12.67;12.67;;;;;;;;5054486;28;52065;-60
2023/08/25 01:22:39;;;;;;;;;12.33;12.33;;;;;;;;5053523;28;51164;-60
2023/08/25 01:25:23;;;;;;;;;11.67;11.67;;;;;;;;5054781;28;51254;-61
2023/08/25 01:27:50;;;;;;;;;12.67;12.67;;;;;;;;5042871;28;50982;-59
2023/08/25 01:30:15;;;;;;;;;12.33;12.33;;;;;;;;5054380;28;51825;-60
2023/08/25 01:32:40;;;;;;;;;10.67;10.33;;;;;;;;5049069;28;51111;-60
2023/08/25 01:35:06;;;;;;;;;14.00;14.00;;;;;;;;5052576;28;51041;-59
2023/08/25 01:37:33;;;;;;;;;15.00;13.33;;;;;;;;5052360;28;51344;-60
2023/08/25 01:40:05;;;;;;;;;11.00;11.00;;;;;;;;5052510;28;51877;-60
2023/08/25 01:42:32;;;;;;;;;11.00;11.00;;;;;;;;5052399;28;51047;-60
2023/08/25 01:44:59;;;;;;;;;11.33;11.00;;;;;;;;5052142;28;51172;-60
2023/08/25 01:47:27;;;;;;;;;12.00;12.00;;;;;;;;5052239;28;51010;-59
2023/08/25 01:49:53;;;;;;;;;11.67;11.33;;;;;;;;5054238;28;52051;-59
2023/08/25 01:52:18;;;;;;;;;12.00;12.00;;;;;;;;5053229;28;51962;-60
2023/08/25 01:54:44;;;;;;;;;11.00;11.00;;;;;;;;5053117;28;51160;-59
2023/08/25 01:57:09;;;;;;;;;11.00;11.00;;;;;;;;5051138;28;51129;-59
2023/08/25 01:59:34;;;;;;;;;13.67;12.67;;;;;;;;5053241;28;51104;-60
2023/08/25 02:01:59;;;;;;;;;13.67;13.67;;;;;;;;5049150;28;51161;-59
2023/08/25 02:04:24;;;;;;;;;13.00;13.00;;;;;;;;5054541;28;51018;-60
2023/08/25 02:06:50;;;;;;;;;13.33;12.67;;;;;;;;5054313;28;51138;-60
2023/08/25 02:09:15;;;;;;;;;16.33;15.00;;;;;;;;5054056;28;51798;-59
2023/08/25 02:11:40;;;;;;;;;14.33;14.33;;;;;;;;5067197;28;51207;-59
2023/08/25 02:14:06;;;;;;;;;11.67;10.67;;;;;;;;5052834;28;51087;-59
2023/08/25 02:16:31;;;;;;;;;9.33;9.00;;;;;;;;5052275;28;50938;-59
2023/08/25 02:18:56;;;;;;;;;13.00;12.00;;;;;;;;5052820;28;52663;-58
2023/08/25 02:21:22;;;;;;;;;14.67;14.00;;;;;;;;5053088;28;50931;-58
2023/08/25 02:23:47;;;;;;;;;12.00;12.00;;;;;;;;5053284;28;50920;-60
2023/08/25 02:26:12;;;;;;;;;13.67;13.67;;;;;;;;5052997;28;51417;-60
2023/08/25 02:28:37;;;;;;;;;12.33;12.00;;;;;;;;5053957;28;51884;-59
2023/08/25 02:31:02;;;;;;;;;15.00;15.00;;;;;;;;5039669;28;50985;-59
2023/08/25 02:33:28;;;;;;;;;14.00;14.00;;;;;;;;5048790;28;50915;-58
2023/08/25 02:35:53;;;;;;;;;12.00;12.00;;;;;;;;5041064;28;51473;-60
2023/08/25 02:38:18;;;;;;;;;12.00;11.67;;;;;;;;5053278;28;51026;-58
2023/08/25 02:40:43;;;;;;;;;14.00;13.00;;;;;;;;5058224;28;51303;-58
2023/08/25 02:43:09;;;;;;;;;13.00;13.00;;;;;;;;5055533;28;51087;-59
2023/08/25 02:45:34;;;;;;;;;13.00;13.00;;;;;;;;5050416;28;51378;-59
2023/08/25 02:47:59;;;;;;;;;10.67;10.67;;;;;;;;5054960;28;51208;-59
2023/08/25 02:50:25;;;;;;;;;3.67;3.00;;;;;;;;5050520;28;51017;-59
2023/08/25 02:52:50;;;;;;;;;19.00;17.00;;;;;;;;5052698;28;50935;-59
2023/08/25 02:55:17;;;;;;;;;20.50;20.00;;;;;;;;5051393;28;51309;-59
2023/08/25 02:57:43;;;;;;;;;20.00;19.25;;;;;;;;5059054;28;52031;-58
2023/08/25 03:00:09;;;;;;;;;22.67;22.67;;;;;;;;5052945;28;51101;-58
2023/08/25 03:02:34;;;;;;;;;22.25;19.50;;;;;;;;5034830;28;51140;-58
2023/08/25 03:04:59;;;;;;;;;23.33;22.33;;;;;;;;5051155;28;51283;-58
2023/08/25 03:07:24;;;;;;;;;21.00;19.75;;;;;;;;5052222;28;52720;-58
2023/08/25 03:09:50;;;;;;;;;20.33;19.67;;;;;;;;5051034;28;50958;-58
2023/08/25 03:12:15;;;;;;;;;18.67;18.33;;;;;;;;5050616;28;51185;-58
2023/08/25 03:14:40;;;;;;;;;20.75;20.50;;;;;;;;5048611;28;51335;-59
2023/08/25 03:17:05;;;;;;;;;22.00;21.00;;;;;;;;5048731;28;51871;-58
2023/08/25 03:19:30;;;;;;;;;20.00;19.00;;;;;;;;5052219;28;51093;-58
2023/08/25 03:21:55;;;;;;;;;21.50;20.50;;;;;;;;5052151;28;51284;-59
2023/08/25 03:24:21;;;;;;;;;21.00;20.00;;;;;;;;5052179;28;51371;-58
2023/08/25 03:26:46;;;;;;;;;19.00;19.00;;;;;;;;5050254;28;52696;-58
2023/08/25 03:29:11;;;;;;;;;26.25;25.25;;;;;;;;5048942;28;51203;-58
2023/08/25 03:31:38;;;;;;;;;23.75;22.00;;;;;;;;5058214;28;51371;-60
2023/08/25 03:34:03;;;;;;;;;21.00;19.50;;;;;;;;5088588;28;8929;-60
2023/08/25 03:36:30;;;;;;;;;21.00;20.75;;;;;;;;5089760;28;9832;-58
2023/08/25 03:38:55;;;;;;;;;22.25;22.25;;;;;;;;5087534;28;8799;-58
2023/08/25 03:41:20;;;;;;;;;26.00;25.50;;;;;;;;5089330;28;9566;-58
2023/08/25 03:43:45;;;;;;;;;24.50;24.50;;;;;;;;5096112;28;8809;-60
2023/08/25 03:46:10;;;;;;;;;24.00;23.50;;;;;;;;5087616;28;8810;-60
2023/08/25 03:48:35;;;;;;;;;26.00;25.00;;;;;;;;5091230;28;8802;-60
2023/08/25 03:51:01;;;;;;;;;26.00;26.00;;;;;;;;5089645;28;8899;-59
2023/08/25 03:53:26;;;;;;;;;26.00;25.25;;;;;;;;5087753;28;8855;-60
2023/08/25 03:55:52;;;;;;;;;25.50;24.75;;;;;;;;5087075;28;8832;-59
2023/08/25 03:58:17;;;;;;;;;22.50;22.50;;;;;;;;5088994;28;8830;-60
2023/08/25 04:00:42;;;;;;;;;27.00;25.75;;;;;;;;5088809;28;8918;-60
2023/08/25 04:03:08;;;;;;;;;21.33;21.00;;;;;;;;5089190;28;8831;-60
2023/08/25 04:05:33;;;;;;;;;21.67;20.33;;;;;;;;5088238;28;8858;-59
2023/08/25 04:07:58;;;;;;;;;20.67;19.67;;;;;;;;5089027;28;8810;-59
2023/08/25 04:10:24;;;;;;;;;15.33;15.33;;;;;;;;5088762;28;8819;-60
2023/08/25 04:12:49;;;;;;;;;13.67;13.33;;;;;;;;5086507;28;8822;-59
2023/08/25 04:15:14;;;;;;;;;14.33;14.33;;;;;;;;5088558;28;8865;-60
2023/08/25 04:17:39;;;;;;;;;14.00;13.67;;;;;;;;5087231;28;8810;-60
2023/08/25 04:20:05;;;;;;;;;14.00;13.33;;;;;;;;5088839;28;8815;-59
2023/08/25 04:22:30;;;;;;;;;13.33;13.33;;;;;;;;5089938;28;8825;-60
2023/08/25 04:24:56;;;;;;;;;14.33;14.33;;;;;;;;5090390;28;8835;-59
2023/08/25 04:27:21;;;;;;;;;14.33;12.67;;;;;;;;5093558;28;8831;-59
2023/08/25 04:29:46;;;;;;;;;16.67;15.33;;;;;;;;5088799;28;8841;-58
2023/08/25 04:32:11;;;;;;;;;15.67;14.00;;;;;;;;5074951;28;8810;-58
2023/08/25 04:34:37;;;;;;;;;16.00;15.33;;;;;;;;5091569;28;8806;-58
2023/08/25 04:37:03;;;;;;;;;17.67;16.67;;;;;;;;5092002;28;8909;-58
2023/08/25 04:39:28;;;;;;;;;19.67;19.00;;;;;;;;5088980;28;8823;-60
2023/08/25 04:41:54;;;;;;;;;26.75;26.50;;;;;;;;5093375;28;8817;-59
2023/08/25 04:44:19;;;;;;;;;30.25;28.25;;;;;;;;5088446;28;8798;-60
2023/08/25 04:46:44;;;;;;;;;27.00;23.75;;;;;;;;5092444;28;9831;-62
2023/08/25 04:49:10;;;;;;;;;28.00;28.00;;;;;;;;5084558;28;8806;-60
2023/08/25 04:51:35;;;;;;;;;33.00;29.75;;;;;;;;5088477;28;8785;-59
2023/08/25 04:54:01;;;;;;;;;27.00;26.25;;;;;;;;5092971;28;8806;-58
2023/08/25 04:56:26;;;;;;;;;27.50;26.75;;;;;;;;5090927;28;8899;-59
2023/08/25 04:58:51;;;;;;;;;30.75;30.00;;;;;;;;5092808;28;8811;-59
2023/08/25 05:01:16;;;;;;;;;29.25;28.50;;;;;;;;5089009;28;8810;-59
2023/08/25 05:03:44;;;;;;;;;38.00;33.00;;;;;;;;5090956;28;8872;-59
2023/08/25 05:06:09;;;;;;;;;35.75;31.75;;;;;;;;5091080;28;8779;-58
2023/08/25 05:08:35;;;;;;;;;35.50;32.50;;;;;;;;5090495;28;10002;-59
2023/08/25 05:11:00;;;;;;;;;36.00;33.00;;;;;;;;5076271;28;8837;-59
2023/08/25 05:13:25;;;;;;;;;30.50;30.00;;;;;;;;5074264;28;8815;-59
2023/08/25 05:15:50;;;;;;;;;40.00;35.25;;;;;;;;5093607;28;8783;-58
2023/08/25 05:18:15;;;;;;;;;44.00;38.00;;;;;;;;5090525;28;8814;-59
2023/08/25 05:20:41;;;;;;;;;40.00;33.75;;;;;;;;5092149;28;8823;-60
2023/08/25 05:23:06;;;;;;;;;42.25;36.25;;;;;;;;5090106;28;8828;-60
2023/08/25 05:25:31;;;;;;;;;45.50;38.50;;;;;;;;5089945;28;8806;-60
2023/08/25 05:27:56;;;;;;;;;45.25;38.25;;;;;;;;5085470;28;8801;-59
2023/08/25 05:30:21;;;;;;;;;45.00;38.00;;;;;;;;5093243;28;8815;-59
2023/08/25 05:32:46;;;;;;;;;46.25;37.25;;;;;;;;5093084;28;8823;-60
2023/08/25 05:35:12;;;;;;;;;41.75;36.00;;;;;;;;5091746;28;8885;-60
2023/08/25 05:37:37;;;;;;;;;46.50;39.25;;;;;;;;5092808;28;8818;-59
2023/08/25 05:40:05;;;;;;;;;45.25;37.75;;;;;;;;5091791;28;8815;-60
2023/08/25 05:42:31;;;;;;;;;44.25;38.00;;;;;;;;5075005;28;8810;-59
2023/08/25 05:44:57;;;;;;;;;43.25;35.75;;;;;;;;5092702;28;10698;-59
2023/08/25 05:47:22;;;;;;;;;40.25;35.75;;;;;;;;5072163;28;10491;-59
2023/08/25 05:49:48;;;;;;;;;46.50;39.00;;;;;;;;5092913;28;8831;-59
2023/08/25 05:52:13;;;;;;;;;46.50;39.75;;;;;;;;5092850;28;8829;-59
2023/08/25 05:54:38;;;;;;;;;49.50;40.50;;;;;;;;5092351;28;8810;-59
2023/08/25 05:57:04;;;;;;;;;52.00;43.25;;;;;;;;5092845;28;8853;-60
2023/08/25 05:59:32;;;;;;;;;46.50;39.50;;;;;;;;5091281;28;8834;-59
2023/08/25 06:01:57;;;;;;;;;47.75;40.50;;;;;;;;5084101;28;8879;-59
2023/08/25 06:04:22;;;;;;;;;47.00;39.25;;;;;;;;5083487;28;11031;-60
2023/08/25 06:06:47;;;;;;;;;46.75;39.25;;;;;;;;5089277;28;8844;-59
2023/08/25 06:09:12;;;;;;;;;46.75;38.25;;;;;;;;5091654;28;8917;-60
2023/08/25 06:11:38;;;;;;;;;49.25;40.50;;;;;;;;5091624;28;9577;-59
2023/08/25 06:14:03;;;;;;;;;42.50;36.50;;;;;;;;5092468;28;8807;-59
2023/08/25 06:16:28;;;;;;;;;43.00;37.50;;;;;;;;5092497;28;9540;-59
2023/08/25 06:18:53;;;;;;;;;44.50;38.25;;;;;;;;5092171;28;9555;-59
2023/08/25 06:21:19;;;;;;;;;45.25;36.75;;;;;;;;5092180;28;8802;-59
2023/08/25 06:23:44;;;;;;;;;44.00;37.00;;;;;;;;5091850;28;8902;-59
2023/08/25 06:26:09;;;;;;;;;43.50;37.25;;;;;;;;5091984;28;8838;-59
2023/08/25 06:28:35;;;;;;;;;46.25;38.75;;;;;;;;5092178;28;8787;-63
2023/08/25 06:31:01;;;;;;;;;47.25;38.50;;;;;;;;5091753;28;8807;-60
2023/08/25 06:33:29;;;;;;;;;40.50;35.25;;;;;;;;5092151;28;8853;-59
2023/08/25 06:35:55;;;;;;;;;41.75;35.75;;;;;;;;5085547;28;8807;-59
2023/08/25 06:38:20;;;;;;;;;41.75;35.50;;;;;;;;5091805;28;10565;-59
2023/08/25 06:40:47;;;;;;;;;44.50;37.00;;;;;;;;5091703;28;8850;-59
2023/08/25 06:43:12;;;;;;;;;45.50;37.75;;;;;;;;5091710;28;8807;-59
2023/08/25 06:45:38;;;;;;;;;43.75;35.75;;;;;;;;5090041;28;10494;-59
2023/08/25 06:48:04;;;;;;;;;44.25;38.25;;;;;;;;5083170;28;8822;-60
2023/08/25 06:50:30;;;;;;;;;32.50;30.75;;;;;;;;5091437;28;8811;-59
2023/08/25 06:52:55;;;;;;;;;41.00;35.00;;;;;;;;5091440;28;8925;-59
2023/08/25 06:55:22;;;;;;;;;37.00;32.75;;;;;;;;5090988;28;8806;-59
2023/08/25 06:57:47;;;;;;;;;37.50;33.00;;;;;;;;5091701;28;8790;-60
2023/08/25 07:00:13;;;;;;;;;36.25;33.50;;;;;;;;5090216;28;10205;-59
2023/08/25 07:02:40;;;;;;;;;30.75;28.75;;;;;;;;5086168;28;8833;-59
2023/08/25 07:05:06;;;;;;;;;35.50;32.50;;;;;;;;5091657;28;8780;-59
2023/08/25 07:07:31;;;;;;;;;30.50;29.50;;;;;;;;5091670;28;10062;-59
2023/08/25 07:09:57;;;;;;;;;36.00;32.25;;;;;;;;5089623;28;8837;-59
2023/08/25 07:12:22;;;;;;;;;33.00;31.00;;;;;;;;5091194;28;8791;-60
2023/08/25 07:14:47;;;;;;;;;33.50;31.00;;;;;;;;5095869;28;8827;-59
2023/08/25 07:17:13;;;;;;;;;30.50;30.25;;;;;;;;5090945;28;8814;-59
2023/08/25 07:19:38;;;;;;;;;27.75;27.25;;;;;;;;5087190;28;8953;-59
2023/08/25 07:22:03;;;;;;;;;30.50;29.25;;;;;;;;5087104;28;8795;-60
2023/08/25 07:24:29;;;;;;;;;32.00;30.00;;;;;;;;5089962;28;8893;-60
2023/08/25 07:26:54;;;;;;;;;29.75;28.50;;;;;;;;5090944;28;8928;-61
2023/08/25 07:29:19;;;;;;;;;29.00;28.75;;;;;;;;5090980;28;8802;-58
2023/08/25 07:31:44;;;;;;;;;29.50;29.25;;;;;;;;5077401;28;8793;-59
2023/08/25 07:34:09;;;;;;;;;26.50;26.00;;;;;;;;5086101;28;9599;-59
2023/08/25 07:36:35;;;;;;;;;24.25;23.25;;;;;;;;5081905;28;8841;-59
2023/08/25 07:39:00;;;;;;;;;26.50;24.00;;;;;;;;5085486;28;8811;-59
2023/08/25 07:41:25;;;;;;;;;26.00;24.33;;;;;;;;5081714;28;8825;-59
2023/08/25 07:43:50;;;;;;;;;19.00;18.00;;;;;;;;5086520;28;8804;-59
2023/08/25 07:46:16;;;;;;;;;22.00;21.67;;;;;;;;5086522;28;8833;-59
2023/08/25 07:48:41;;;;;;;;;20.67;20.67;;;;;;;;5086591;28;8807;-59
2023/08/25 07:51:06;;;;;;;;;19.33;19.33;;;;;;;;5086007;28;8843;-59
2023/08/25 07:53:31;;;;;;;;;16.67;16.00;;;;;;;;5085893;28;8818;-59
2023/08/25 07:55:58;;;;;;;;;17.33;15.33;;;;;;;;5087323;28;8842;-60
2023/08/25 07:58:23;;;;;;;;;18.00;17.33;;;;;;;;5090131;28;8822;-59
2023/08/25 08:00:49;;;;;;;;;16.67;16.00;;;;;;;;5091102;28;9395;-60
2023/08/25 08:03:15;;;;;;;;;16.00;16.00;;;;;;;;5090418;28;8840;-60
2023/08/25 08:05:40;;;;;;;;;17.00;15.00;;;;;;;;5092056;28;9141;-59
2023/08/25 08:08:05;;;;;;;;;17.00;15.67;;;;;;;;5090898;28;8822;-59
2023/08/25 08:10:31;;;;;;;;;18.33;17.67;;;;;;;;5087636;28;8929;-60
2023/08/25 08:12:56;;;;;;;;;16.67;16.67;;;;;;;;5091387;28;8808;-60
2023/08/25 08:15:22;;;;;;;;;18.00;17.33;;;;;;;;5085676;28;8880;-60
2023/08/25 08:17:47;;;;;;;;;17.33;16.00;;;;;;;;5089116;28;8822;-60
2023/08/25 08:20:12;;;;;;;;;17.00;16.67;;;;;;;;5093254;28;8944;-60
2023/08/25 08:22:39;;;;;;;;;16.67;16.67;;;;;;;;5093606;28;8849;-60
2023/08/25 08:25:05;;;;;;;;;17.00;16.67;;;;;;;;5096984;28;8939;-60
2023/08/25 08:27:31;;;;;;;;;16.00;15.00;;;;;;;;5089797;28;9356;-61
2023/08/25 08:29:56;;;;;;;;;13.00;12.67;;;;;;;;5089457;28;9128;-60
2023/08/25 08:32:22;;;;;;;;;12.67;11.33;;;;;;;;5085629;28;8791;-58
2023/08/25 08:34:49;;;;;;;;;14.00;14.00;;;;;;;;5093199;28;8756;-60
2023/08/25 08:37:14;;;;;;;;;13.00;13.00;;;;;;;;5093345;28;9121;-59
2023/08/25 08:39:39;;;;;;;;;12.00;10.00;;;;;;;;5093061;28;9144;-60
2023/08/25 08:42:09;;;;;;;;;10.00;9.33;;;;;;;;5099060;28;8805;-59
2023/08/25 08:44:35;;;;;;;;;10.00;9.33;;;;;;;;5087890;28;8809;-59
2023/08/25 08:47:01;;;;;;;;;8.50;7.75;;;;;;;;5089558;28;8861;-60
2023/08/25 08:49:26;;;;;;;;;7.67;6.33;;;;;;;;5092171;28;8818;-60
2023/08/25 08:51:53;;;;;;;;;7.33;6.00;;;;;;;;5093062;28;8787;-59
2023/08/25 08:54:19;;;;;;;;;7.00;6.25;;;;;;;;5086777;28;8789;-59
2023/08/25 08:56:45;;;;;;;;;3.75;3.75;;;;;;;;5095558;28;8795;-59
2023/08/25 08:59:10;;;;;;;;;4.67;4.67;;;;;;;;5086681;28;9611;-59
2023/08/25 09:01:35;;;;;;;;;5.33;5.00;;;;;;;;5091167;28;8795;-60
2023/08/25 09:04:02;;;;;;;;;6.67;5.33;;;;;;;;5079866;28;8830;-60
2023/08/25 09:06:33;;;;;;;;;5.00;4.00;;;;;;;;5069778;28;8783;-59
2023/08/25 09:09:04;;;;;;;;;2.50;2.50;;;;;;;;5089981;28;8791;-59
2023/08/25 09:11:29;;;;;;;;;4.00;3.00;;;;;;;;5092449;28;8833;-59
2023/08/25 09:13:57;;;;;;;;;3.67;3.67;;;;;;;;5092547;28;8787;-59
2023/08/25 09:16:22;;;;;;;;;2.75;2.75;;;;;;;;5088682;28;8799;-59
2023/08/25 09:18:48;;;;;;;;;2.00;2.00;;;;;;;;5090789;28;8858;-60
2023/08/25 09:21:15;;;;;;;;;4.33;4.33;;;;;;;;5074208;28;8831;-60
2023/08/25 09:23:59;;;;;;;;;3.00;3.00;;;;;;;;5089900;28;8791;-60
2023/08/25 09:26:25;;;;;;;;;3.25;3.25;;;;;;;;5074179;28;9602;-60
2023/08/25 09:28:51;;;;;;;;;3.33;3.33;;;;;;;;5092168;28;8803;-60
2023/08/25 09:31:26;;;;;;;;;3.67;3.67;;;;;;;;5091682;28;8913;-60
2023/08/25 09:33:57;;;;;;;;;5.00;4.50;;;;;;;;5089601;28;8838;-60
2023/08/25 09:36:23;;;;;;;;;4.00;4.00;;;;;;;;5076997;28;8789;-60
2023/08/25 09:38:48;;;;;;;;;3.00;3.00;;;;;;;;5088752;28;8876;-60
2023/08/25 09:41:22;;;;;;;;;4.00;3.33;;;;;;;;5081486;28;8931;-60
2023/08/25 09:43:47;;;;;;;;;3.50;3.25;;;;;;;;5080147;28;8805;-58
2023/08/25 09:46:13;;;;;;;;;4.33;4.00;;;;;;;;5090680;28;8903;-58
2023/08/25 09:48:39;;;;;;;;;3.25;3.00;;;;;;;;5092175;28;8818;-58
2023/08/25 09:51:05;;;;;;;;;3.00;3.00;;;;;;;;5092341;28;8807;-58
2023/08/25 09:53:31;;;;;;;;;2.75;2.75;;;;;;;;5091771;28;8845;-59
2023/08/25 09:56:01;;;;;;;;;3.00;3.00;;;;;;;;5092111;28;8899;-59
2023/08/25 09:58:27;;;;;;;;;6.00;5.00;;;;;;;;5092277;28;8795;-59
2023/08/25 10:03:28;;;;;;;;;5.75;5.00;;;;;;;;5212132;22;8829;-58
2023/08/25 10:05:54;;;;;;;;;5.00;5.00;;;;;;;;5067181;28;8895;-57
2023/08/25 10:08:19;;;;;;;;;5.67;5.67;;;;;;;;5071962;28;8844;-60
2023/08/25 10:10:45;;;;;;;;;5.00;4.00;;;;;;;;5072025;28;8822;-59
2023/08/25 10:13:12;;;;;;;;;4.00;4.00;;;;;;;;5064357;28;8845;-58
2023/08/25 10:15:37;;;;;;;;;6.75;6.00;;;;;;;;5071508;28;8819;-60
2023/08/25 10:18:03;;;;;;;;;6.00;5.00;;;;;;;;5071954;28;8797;-60
2023/08/25 10:20:32;;;;;;;;;6.00;6.00;;;;;;;;5071158;28;8810;-59
2023/08/25 10:22:58;;;;;;;;;5.33;5.00;;;;;;;;5067418;28;8782;-60
2023/08/25 10:25:27;;;;;;;;;4.75;4.00;;;;;;;;5064534;28;8904;-59
2023/08/25 10:27:52;;;;;;;;;7.25;7.00;;;;;;;;5067018;28;8800;-59
2023/08/25 10:30:19;;;;;;;;;8.00;7.33;;;;;;;;5061289;28;8827;-60
2023/08/25 10:32:53;;;;;;;;;6.67;5.67;;;;;;;;5078441;28;8814;-60
2023/08/25 10:35:39;;;;;;;;;9.25;7.75;;;;;;;;5064772;28;10253;-60
2023/08/25 10:38:09;;;;;;;;;9.50;8.25;;;;;;;;5056454;28;9566;-60
2023/08/25 10:40:41;;;;;;;;;8.33;8.33;;;;;;;;5051033;28;8808;-60
2023/08/25 10:43:06;;;;;;;;;10.33;9.00;;;;;;;;5050986;28;8957;-60
2023/08/25 10:45:34;;;;;;;;;7.00;6.33;;;;;;;;5051254;28;8920;-59
2023/08/25 10:48:01;;;;;;;;;9.75;7.50;;;;;;;;5052641;28;8975;-60
2023/08/25 10:50:26;;;;;;;;;9.00;9.00;;;;;;;;5051235;28;8805;-59
2023/08/25 10:52:52;;;;;;;;;7.00;7.00;;;;;;;;5050560;28;9709;-60
2023/08/25 10:55:27;;;;;;;;;7.33;6.67;;;;;;;;5058123;28;8816;-60
2023/08/25 10:57:53;;;;;;;;;9.25;6.25;;;;;;;;5070977;28;9025;-60
2023/08/25 11:00:48;;;;;;;;;9.00;7.00;;;;;;;;5071244;28;8805;-60
2023/08/25 11:03:14;;;;;;;;;8.33;6.67;;;;;;;;5057544;28;9010;-60
2023/08/25 11:05:41;;;;;;;;;7.00;5.50;;;;;;;;5070829;28;8889;-60
2023/08/25 11:08:43;;;;;;;;;7.00;6.00;;;;;;;;5069762;28;8841;-60
2023/08/25 11:11:10;;;;;;;;;7.00;7.00;;;;;;;;4992293;28;9638;-60
2023/08/25 11:13:37;;;;;;;;;11.00;11.00;;;;;;;;5049727;28;9693;-60
2023/08/25 11:16:05;;;;;;;;;8.67;8.00;;;;;;;;5050634;28;9040;-60
2023/08/25 11:18:30;;;;;;;;;9.33;9.00;;;;;;;;5052280;28;9653;-60
2023/08/25 11:20:55;;;;;;;;;10.00;10.00;;;;;;;;5065491;28;8931;-59
2023/08/25 11:23:20;;;;;;;;;10.00;9.33;;;;;;;;5050009;28;8828;-60
2023/08/25 11:25:45;;;;;;;;;9.00;8.67;;;;;;;;5050400;28;8812;-60
2023/08/25 11:28:12;;;;;;;;;11.00;9.67;;;;;;;;5050483;28;8890;-60
2023/08/25 11:30:37;;;;;;;;;10.33;10.33;;;;;;;;5050170;28;8781;-60
2023/08/25 11:33:04;;;;;;;;;13.00;12.00;;;;;;;;5049988;28;9015;-59
2023/08/25 11:35:30;;;;;;;;;9.00;9.00;;;;;;;;5065579;28;8824;-60
2023/08/25 11:37:55;;;;;;;;;9.00;8.75;;;;;;;;5068992;28;9199;-59
2023/08/25 11:40:21;;;;;;;;;11.00;10.00;;;;;;;;5069261;28;8814;-60
2023/08/25 11:42:46;;;;;;;;;10.67;9.67;;;;;;;;5070344;28;8790;-60
2023/08/25 11:45:12;;;;;;;;;11.33;11.33;;;;;;;;5037102;28;9602;-60
2023/08/25 11:47:40;;;;;;;;;10.00;8.33;;;;;;;;5056865;28;8832;-60
2023/08/25 11:50:06;;;;;;;;;10.67;10.00;;;;;;;;5065863;28;8793;-60
2023/08/25 11:52:32;;;;;;;;;11.00;10.67;;;;;;;;5068372;28;9051;-60
2023/08/25 11:54:57;;;;;;;;;9.67;9.67;;;;;;;;5059874;28;8816;-60
2023/08/25 11:57:32;;;;;;;;;8.33;8.00;;;;;;;;5050132;28;8906;-60
2023/08/25 11:59:57;;;;;;;;;9.33;9.33;;;;;;;;5049777;28;9580;-58
2023/08/25 12:02:22;;;;;;;;;12.33;10.67;;;;;;;;5049398;28;9286;-59
2023/08/25 12:04:54;;;;;;;;;9.00;9.00;;;;;;;;5067411;28;8821;-59
2023/08/25 12:07:23;;;;;;;;;12.67;11.00;;;;;;;;5056069;28;8817;-58
2023/08/25 12:09:55;;;;;;;;;13.00;12.00;;;;;;;;5049629;28;9177;-59
2023/08/25 12:12:21;;;;;;;;;10.67;10.00;;;;;;;;5056558;28;9216;-59
2023/08/25 12:14:49;;;;;;;;;14.00;13.00;;;;;;;;5045522;28;9069;-60
2023/08/25 12:17:23;;;;;;;;;18.33;16.67;;;;;;;;5058952;28;8798;-60
2023/08/25 12:19:48;;;;;;;;;16.00;15.00;;;;;;;;5069188;28;9288;-59
2023/08/25 12:22:15;;;;;;;;;14.33;13.67;;;;;;;;5050621;28;9175;-59
2023/08/25 12:24:41;;;;;;;;;19.00;16.33;;;;;;;;5049218;28;9643;-59
2023/08/25 12:27:06;;;;;;;;;21.33;19.00;;;;;;;;5049561;28;9581;-59
2023/08/25 12:29:32;;;;;;;;;16.33;16.33;;;;;;;;5049433;28;8851;-59
2023/08/25 12:31:57;;;;;;;;;19.67;18.67;;;;;;;;5049366;28;8909;-59
2023/08/25 12:34:22;;;;;;;;;20.00;19.00;;;;;;;;5056937;28;8813;-58
2023/08/25 12:36:47;;;;;;;;;21.00;19.50;;;;;;;;5055920;28;8816;-60
2023/08/25 12:39:12;;;;;;;;;19.67;19.33;;;;;;;;5063743;28;8841;-61
2023/08/25 12:41:38;;;;;;;;;18.67;17.00;;;;;;;;5059714;28;8827;-60
2023/08/25 12:44:04;;;;;;;;;18.00;16.50;;;;;;;;5049486;28;8809;-58
2023/08/25 12:46:29;;;;;;;;;18.75;17.75;;;;;;;;5052933;28;8824;-59
2023/08/25 12:48:54;;;;;;;;;18.00;17.00;;;;;;;;5052398;28;9526;-59
2023/08/25 12:51:19;;;;;;;;;17.67;17.00;;;;;;;;5052725;28;9542;-60
2023/08/25 12:53:45;;;;;;;;;18.00;17.00;;;;;;;;5052151;28;8812;-60
2023/08/25 12:56:10;;;;;;;;;14.00;13.00;;;;;;;;5052716;28;8820;-60
2023/08/25 12:58:37;;;;;;;;;14.33;12.67;;;;;;;;5052373;28;8823;-60
2023/08/25 13:01:04;;;;;;;;;15.00;15.00;;;;;;;;5052474;28;8809;-59
2023/08/25 13:03:29;;;;;;;;;13.67;13.67;;;;;;;;5052147;28;9424;-60
2023/08/25 13:05:55;;;;;;;;;15.67;14.67;;;;;;;;5052419;28;9373;-60
2023/08/25 13:08:20;;;;;;;;;15.33;14.67;;;;;;;;5071928;28;8813;-60
2023/08/25 13:10:46;;;;;;;;;15.67;14.00;;;;;;;;5070823;28;8821;-60
2023/08/25 13:13:11;;;;;;;;;16.00;15.33;;;;;;;;5072342;28;8906;-60
2023/08/25 13:15:36;;;;;;;;;10.00;10.00;;;;;;;;5072364;28;9551;-60
2023/08/25 13:18:01;;;;;;;;;11.67;10.67;;;;;;;;5072334;28;8798;-59
2023/08/25 13:20:27;;;;;;;;;11.67;10.67;;;;;;;;5070018;28;8821;-60
2023/08/25 13:22:52;;;;;;;;;11.00;10.33;;;;;;;;5071953;28;8829;-62
2023/08/25 13:25:17;;;;;;;;;11.00;11.00;;;;;;;;5070655;28;8813;-60
2023/08/25 13:27:43;;;;;;;;;10.00;9.00;;;;;;;;5052678;28;8801;-60
2023/08/25 13:30:12;;;;;;;;;11.67;11.67;;;;;;;;5052178;28;8809;-59
2023/08/25 13:32:37;;;;;;;;;12.00;11.33;;;;;;;;5052347;28;8769;-60
2023/08/25 13:35:02;;;;;;;;;12.00;11.00;;;;;;;;5063390;28;9114;-60
2023/08/25 13:37:28;;;;;;;;;11.33;11.00;;;;;;;;5052422;28;8804;-60
2023/08/25 13:39:53;;;;;;;;;11.00;10.00;;;;;;;;5051864;28;9558;-60
2023/08/25 13:42:18;;;;;;;;;14.00;14.00;;;;;;;;5052112;28;8824;-59
2023/08/25 13:44:43;;;;;;;;;13.00;12.00;;;;;;;;5051736;28;8826;-59
2023/08/25 13:47:08;;;;;;;;;12.00;10.67;;;;;;;;5057597;28;8804;-59
2023/08/25 13:49:35;;;;;;;;;8.00;8.00;;;;;;;;5052107;28;8859;-60
2023/08/25 13:52:00;;;;;;;;;9.33;9.33;;;;;;;;5052018;28;8784;-60
2023/08/25 13:54:25;;;;;;;;;11.00;10.00;;;;;;;;5051744;28;9099;-60
2023/08/25 13:56:50;;;;;;;;;8.67;8.67;;;;;;;;5063413;28;8904;-60
2023/08/25 13:59:16;;;;;;;;;10.33;10.33;;;;;;;;5071806;28;8949;-59
2023/08/25 14:01:41;;;;;;;;;8.00;8.00;;;;;;;;5071490;28;8859;-60
2023/08/25 14:04:06;;;;;;;;;10.00;10.00;;;;;;;;5071928;28;8845;-59
2023/08/25 14:06:31;;;;;;;;;9.67;9.33;;;;;;;;5071876;28;8814;-59
2023/08/25 14:08:56;;;;;;;;;10.33;9.00;;;;;;;;5071720;28;8832;-59
2023/08/25 14:11:22;;;;;;;;;11.00;10.00;;;;;;;;5071855;28;9003;-60
2023/08/25 14:13:48;;;;;;;;;7.00;7.00;;;;;;;;5071773;28;8790;-60
2023/08/25 14:16:13;;;;;;;;;7.33;7.33;;;;;;;;5071601;28;9089;-59
2023/08/25 14:18:38;;;;;;;;;7.00;7.00;;;;;;;;5071473;28;9632;-59
2023/08/25 14:21:03;;;;;;;;;10.67;7.00;;;;;;;;5071491;28;8880;-59
2023/08/25 14:23:29;;;;;;;;;10.00;9.00;;;;;;;;5071212;28;8805;-58
2023/08/25 14:25:54;;;;;;;;;6.33;6.00;;;;;;;;5071622;28;8798;-59
2023/08/25 14:28:20;;;;;;;;;7.00;7.00;;;;;;;;5071204;28;8885;-59
2023/08/25 14:30:45;;;;;;;;;8.00;7.00;;;;;;;;5071003;28;8797;-59